createdAt,value
2022-10-21T00:00:36.239Z,991.41
2022-10-21T00:01:36.262Z,991.32
2022-10-21T00:02:36.503Z,991.21
2022-10-21T00:03:36.195Z,991.17
2022-10-21T00:04:36.181Z,991.07
2022-10-21T00:05:36.165Z,991.01
2022-10-21T00:06:36.145Z,991.00
2022-10-21T00:07:36.131Z,991.04
2022-10-21T00:08:36.191Z,990.98
2022-10-21T00:09:36.104Z,990.91
2022-10-21T00:11:36.073Z,990.78
2022-10-21T00:12:36.309Z,990.79
2022-10-21T00:13:36.043Z,990.81
2022-10-21T00:14:36.022Z,990.82
2022-10-21T00:15:36.011Z,990.80
2022-10-21T00:16:35.992Z,990.84
2022-10-21T00:17:35.979Z,990.89
2022-10-21T00:18:35.961Z,990.88
2022-10-21T00:19:35.949Z,990.78
2022-10-21T00:20:38.820Z,990.70
2022-10-21T00:21:35.917Z,990.68
2022-10-21T00:22:36.272Z,990.61
2022-10-21T00:23:35.887Z,990.56
2022-10-21T00:24:35.871Z,990.54
2022-10-21T00:25:35.860Z,990.50
2022-10-21T00:26:37.739Z,990.48
2022-10-21T00:27:36.148Z,990.49
2022-10-21T00:28:35.809Z,990.43
2022-10-21T00:29:35.799Z,990.44
2022-10-21T00:30:35.779Z,990.34
2022-10-21T00:31:35.767Z,990.34
2022-10-21T00:32:36.190Z,990.25
2022-10-21T00:33:35.736Z,990.20
2022-10-21T00:34:35.718Z,990.17
2022-10-21T00:35:35.705Z,990.24
2022-10-21T00:36:35.689Z,990.20
2022-10-21T00:37:35.944Z,990.21
2022-10-21T00:38:35.656Z,990.22
2022-10-21T00:39:35.643Z,990.30
2022-10-21T00:40:35.626Z,990.33
2022-10-21T00:41:35.616Z,990.39
2022-10-21T00:42:35.914Z,990.35
2022-10-21T00:43:35.581Z,990.33
2022-10-21T00:44:35.565Z,990.29
2022-10-21T00:45:35.553Z,990.26
2022-10-21T00:46:35.536Z,990.29
2022-10-21T00:47:35.578Z,990.32
2022-10-21T00:48:35.506Z,990.33
2022-10-21T00:49:35.492Z,990.40
2022-10-21T00:50:37.601Z,990.34
2022-10-21T00:51:35.461Z,990.38
2022-10-21T00:52:35.672Z,990.40
2022-10-21T00:53:35.430Z,990.45
2022-10-21T00:54:35.415Z,990.46
2022-10-21T00:55:35.400Z,990.47
2022-10-21T00:56:35.386Z,990.41
2022-10-21T00:57:35.610Z,990.44
2022-10-21T00:58:35.354Z,990.34
2022-10-21T00:59:35.341Z,990.46
2022-10-21T01:00:35.324Z,990.46
2022-10-21T01:01:35.410Z,990.43
2022-10-21T01:02:35.296Z,990.47
2022-10-21T01:03:35.283Z,990.45
2022-10-21T01:04:35.266Z,990.44
2022-10-21T01:05:35.252Z,990.44
2022-10-21T01:06:35.234Z,990.44
2022-10-21T01:07:37.594Z,990.40
2022-10-21T01:08:35.253Z,990.41
2022-10-21T01:09:35.201Z,990.38
2022-10-21T01:10:35.175Z,990.42
2022-10-21T01:11:35.161Z,990.43
2022-10-21T01:12:35.145Z,990.42
2022-10-21T01:13:35.167Z,990.34
2022-10-21T01:14:35.118Z,990.27
2022-10-21T01:15:35.105Z,990.20
2022-10-21T01:16:35.084Z,990.09
2022-10-21T01:17:47.321Z,990.13
2022-10-21T01:18:35.056Z,990.07
2022-10-21T01:19:35.045Z,990.04
2022-10-21T01:20:35.025Z,989.97
2022-10-21T01:21:35.010Z,989.91
2022-10-21T01:22:34.994Z,989.87
2022-10-21T01:23:34.981Z,989.88
2022-10-21T01:24:34.965Z,989.83
2022-10-21T01:25:34.951Z,989.84
2022-10-21T01:26:34.941Z,989.69
2022-10-21T01:27:35.243Z,989.55
2022-10-21T01:28:34.904Z,989.49
2022-10-21T01:29:34.894Z,989.48
2022-10-21T01:30:34.887Z,989.48
2022-10-21T01:31:34.867Z,989.49
2022-10-21T01:32:34.843Z,989.47
2022-10-21T01:33:34.829Z,989.45
2022-10-21T01:34:34.813Z,989.51
2022-10-21T01:35:34.802Z,989.51
2022-10-21T01:36:34.784Z,989.60
2022-10-21T01:37:34.854Z,989.66
2022-10-21T01:38:34.752Z,989.66
2022-10-21T01:39:34.744Z,989.64
2022-10-21T01:40:34.722Z,989.61
2022-10-21T01:41:34.709Z,989.60
2022-10-21T01:42:34.729Z,989.51
2022-10-21T01:43:34.679Z,989.50
2022-10-21T01:44:34.663Z,989.58
2022-10-21T01:45:34.649Z,989.72
2022-10-21T01:46:34.631Z,989.83
2022-10-21T01:47:34.621Z,989.85
2022-10-21T01:48:34.610Z,989.76
2022-10-21T01:49:34.587Z,989.72
2022-10-21T01:50:34.573Z,989.65
2022-10-21T01:51:34.558Z,989.64
2022-10-21T01:52:34.561Z,989.64
2022-10-21T01:53:34.529Z,989.66
2022-10-21T01:54:34.512Z,989.67
2022-10-21T01:55:34.496Z,989.64
2022-10-21T01:56:34.480Z,989.60
2022-10-21T01:57:34.468Z,989.58
2022-10-21T01:58:34.453Z,989.57
2022-10-21T01:59:34.435Z,989.53
2022-10-21T02:00:34.420Z,989.55
2022-10-21T02:01:34.456Z,989.55
2022-10-21T02:02:34.388Z,989.50
2022-10-21T02:03:34.377Z,989.49
2022-10-21T02:04:34.356Z,989.47
2022-10-21T02:05:34.350Z,989.48
2022-10-21T02:06:34.328Z,989.52
2022-10-21T02:07:34.318Z,989.47
2022-10-21T02:08:34.360Z,989.48
2022-10-21T02:09:34.289Z,989.50
2022-10-21T02:10:34.265Z,989.46
2022-10-21T02:11:34.253Z,989.38
2022-10-21T02:12:34.236Z,989.35
2022-10-21T02:13:34.221Z,989.24
2022-10-21T02:14:34.210Z,989.19
2022-10-21T02:15:34.202Z,989.17
2022-10-21T02:16:34.176Z,989.10
2022-10-21T02:17:34.160Z,989.10
2022-10-21T02:18:34.149Z,989.19
2022-10-21T02:19:34.146Z,989.21
2022-10-21T02:20:34.112Z,989.19
2022-10-21T02:21:34.097Z,989.20
2022-10-21T02:22:34.085Z,989.24
2022-10-21T02:23:34.071Z,989.24
2022-10-21T02:24:34.050Z,989.26
2022-10-21T02:25:34.048Z,989.27
2022-10-21T02:26:34.023Z,989.27
2022-10-21T02:27:34.010Z,989.23
2022-10-21T02:28:34.035Z,989.30
2022-10-21T02:29:33.975Z,989.25
2022-10-21T02:30:33.960Z,989.29
2022-10-21T02:31:33.944Z,989.27
2022-10-21T02:32:33.927Z,989.22
2022-10-21T02:33:33.914Z,989.23
2022-10-21T02:34:33.898Z,989.25
2022-10-21T02:35:33.883Z,989.24
2022-10-21T02:36:33.867Z,989.25
2022-10-21T02:37:33.879Z,989.26
2022-10-21T02:38:33.844Z,989.28
2022-10-21T02:39:33.822Z,989.31
2022-10-21T02:40:33.806Z,989.27
2022-10-21T02:41:33.790Z,989.21
2022-10-21T02:42:33.780Z,989.20
2022-10-21T02:43:33.761Z,989.17
2022-10-21T02:44:33.747Z,989.11
2022-10-21T02:45:33.728Z,989.16
2022-10-21T02:46:33.724Z,989.13
2022-10-21T02:47:33.701Z,989.13
2022-10-21T02:48:33.684Z,989.19
2022-10-21T02:49:33.668Z,989.08
2022-10-21T02:50:33.655Z,989.01
2022-10-21T02:51:33.639Z,989.03
2022-10-21T02:52:33.623Z,989.03
2022-10-21T02:53:33.606Z,989.04
2022-10-21T02:54:33.595Z,989.05
2022-10-21T02:55:33.577Z,989.06
2022-10-21T02:56:33.562Z,989.07
2022-10-21T02:57:33.547Z,989.04
2022-10-21T02:58:33.533Z,989.04
2022-10-21T02:59:33.512Z,989.07
2022-10-21T03:00:33.502Z,989.05
2022-10-21T03:01:33.485Z,989.16
2022-10-21T03:02:33.472Z,989.10
2022-10-21T03:03:33.454Z,989.10
2022-10-21T03:04:33.440Z,989.11
2022-10-21T03:05:33.427Z,989.10
2022-10-21T03:06:33.410Z,989.08
2022-10-21T03:07:33.391Z,989.06
2022-10-21T03:08:33.441Z,989.05
2022-10-21T03:09:33.360Z,989.05
2022-10-21T03:10:33.352Z,989.00
2022-10-21T03:11:33.330Z,988.97
2022-10-21T03:12:33.314Z,988.92
2022-10-21T03:13:33.300Z,988.93
2022-10-21T03:14:33.285Z,988.93
2022-10-21T03:15:33.268Z,988.93
2022-10-21T03:16:33.256Z,988.91
2022-10-21T03:17:33.236Z,988.90
2022-10-21T03:18:33.224Z,988.83
2022-10-21T03:19:33.213Z,988.85
2022-10-21T03:20:33.195Z,988.84
2022-10-21T03:21:33.174Z,988.83
2022-10-21T03:22:33.163Z,988.80
2022-10-21T03:23:33.145Z,988.78
2022-10-21T03:24:33.129Z,988.70
2022-10-21T03:25:35.726Z,988.64
2022-10-21T03:26:33.103Z,988.66
2022-10-21T03:27:33.087Z,988.59
2022-10-21T03:28:33.066Z,988.56
2022-10-21T03:29:33.050Z,988.57
2022-10-21T03:30:33.040Z,988.50
2022-10-21T03:31:33.019Z,988.49
2022-10-21T03:32:33.005Z,988.46
2022-10-21T03:33:32.988Z,988.45
2022-10-21T03:34:32.984Z,988.46
2022-10-21T03:35:32.958Z,988.46
2022-10-21T03:36:32.944Z,988.40
2022-10-21T03:37:32.926Z,988.43
2022-10-21T03:38:32.916Z,988.43
2022-10-21T03:39:32.898Z,988.42
2022-10-21T03:40:32.880Z,988.47
2022-10-21T03:41:32.866Z,988.47
2022-10-21T03:42:32.851Z,988.54
2022-10-21T03:43:32.839Z,988.49
2022-10-21T03:44:32.820Z,988.54
2022-10-21T03:45:32.801Z,988.62
2022-10-21T03:46:32.788Z,988.63
2022-10-21T03:47:32.771Z,988.65
2022-10-21T03:48:32.759Z,988.62
2022-10-21T03:49:32.763Z,988.63
2022-10-21T03:50:32.727Z,988.62
2022-10-21T03:51:32.708Z,988.60
2022-10-21T03:52:32.701Z,988.59
2022-10-21T03:53:43.357Z,988.59
2022-10-21T03:54:32.664Z,988.57
2022-10-21T03:55:32.664Z,988.59
2022-10-21T03:56:32.631Z,988.64
2022-10-21T03:57:32.622Z,988.60
2022-10-21T03:58:32.601Z,988.64
2022-10-21T03:59:32.588Z,988.62
2022-10-21T04:00:32.573Z,988.62
2022-10-21T04:01:32.649Z,988.62
2022-10-21T04:02:32.549Z,988.63
2022-10-21T04:03:32.524Z,988.66
2022-10-21T04:04:32.516Z,988.67
2022-10-21T04:05:32.495Z,988.64
2022-10-21T04:06:32.476Z,988.66
2022-10-21T04:07:32.463Z,988.65
2022-10-21T04:08:32.453Z,988.68
2022-10-21T04:09:32.432Z,988.66
2022-10-21T04:10:32.414Z,988.63
2022-10-21T04:11:32.398Z,988.68
2022-10-21T04:12:32.389Z,988.65
2022-10-21T04:13:32.366Z,988.70
2022-10-21T04:14:32.353Z,988.69
2022-10-21T04:15:32.339Z,988.71
2022-10-21T04:16:32.323Z,988.67
2022-10-21T04:17:32.307Z,988.69
2022-10-21T04:18:32.293Z,988.70
2022-10-21T04:19:32.285Z,988.71
2022-10-21T04:20:32.259Z,988.65
2022-10-21T04:21:32.243Z,988.62
2022-10-21T04:22:32.231Z,988.58
2022-10-21T04:23:32.212Z,988.53
2022-10-21T04:24:32.195Z,988.51
2022-10-21T04:25:32.179Z,988.46
2022-10-21T04:26:32.166Z,988.49
2022-10-21T04:27:32.172Z,988.51
2022-10-21T04:28:32.134Z,988.48
2022-10-21T04:29:32.117Z,988.41
2022-10-21T04:30:32.106Z,988.42
2022-10-21T04:31:32.468Z,988.40
2022-10-21T04:32:32.071Z,988.40
2022-10-21T04:33:32.054Z,988.36
2022-10-21T04:34:32.040Z,988.42
2022-10-21T04:35:32.026Z,988.33
2022-10-21T04:36:32.010Z,988.39
2022-10-21T04:37:31.992Z,988.40
2022-10-21T04:38:31.979Z,988.40
2022-10-21T04:39:31.962Z,988.39
2022-10-21T04:40:31.946Z,988.40
2022-10-21T04:41:31.930Z,988.39
2022-10-21T04:42:31.918Z,988.38
2022-10-21T04:43:31.903Z,988.36
2022-10-21T04:44:31.884Z,988.31
2022-10-21T04:45:31.868Z,988.31
2022-10-21T04:46:31.854Z,988.30
2022-10-21T04:47:31.840Z,988.31
2022-10-21T04:48:31.822Z,988.25
2022-10-21T04:49:31.808Z,988.27
2022-10-21T04:50:31.796Z,988.22
2022-10-21T04:52:31.761Z,988.29
2022-10-21T04:53:31.746Z,988.26
2022-10-21T04:54:31.733Z,988.24
2022-10-21T04:55:31.711Z,988.23
2022-10-21T04:56:31.696Z,988.23
2022-10-21T04:57:31.681Z,988.25
2022-10-21T04:58:31.667Z,988.26
2022-10-21T04:59:31.648Z,988.32
2022-10-21T05:00:31.636Z,988.33
2022-10-21T05:01:31.672Z,988.36
2022-10-21T05:02:31.607Z,988.38
2022-10-21T05:03:31.589Z,988.37
2022-10-21T05:04:31.573Z,988.37
2022-10-21T05:05:31.554Z,988.31
2022-10-21T05:06:31.553Z,988.27
2022-10-21T05:07:31.526Z,988.22
2022-10-21T05:08:31.579Z,988.20
2022-10-21T05:09:31.492Z,988.20
2022-10-21T05:10:31.477Z,988.15
2022-10-21T05:11:31.464Z,988.15
2022-10-21T05:12:31.497Z,988.15
2022-10-21T05:13:31.431Z,988.18
2022-10-21T05:14:31.416Z,988.13
2022-10-21T05:15:31.401Z,988.18
2022-10-21T05:16:31.384Z,988.18
2022-10-21T05:17:31.367Z,988.14
2022-10-21T05:18:31.357Z,988.14
2022-10-21T05:19:31.620Z,988.16
2022-10-21T05:20:31.322Z,988.16
2022-10-21T05:21:31.375Z,988.10
2022-10-21T05:22:31.294Z,988.17
2022-10-21T05:23:31.273Z,988.08
2022-10-21T05:24:31.258Z,988.09
2022-10-21T05:25:34.180Z,988.06
2022-10-21T05:26:31.231Z,988.00
2022-10-21T05:27:31.210Z,987.97
2022-10-21T05:28:31.196Z,988.00
2022-10-21T05:29:31.183Z,987.95
2022-10-21T05:30:31.221Z,987.99
2022-10-21T05:31:31.153Z,987.92
2022-10-21T05:32:31.136Z,987.86
2022-10-21T05:33:31.118Z,987.83
2022-10-21T05:34:31.105Z,987.81
2022-10-21T05:35:31.091Z,987.82
2022-10-21T05:36:31.098Z,987.80
2022-10-21T05:37:31.055Z,987.84
2022-10-21T05:38:31.061Z,987.84
2022-10-21T05:39:31.072Z,987.83
2022-10-21T05:40:31.027Z,987.82
2022-10-21T05:41:30.992Z,987.83
2022-10-21T05:42:30.981Z,987.79
2022-10-21T05:43:30.962Z,987.80
2022-10-21T05:44:30.949Z,987.78
2022-10-21T05:45:38.664Z,987.78
2022-10-21T05:47:34.924Z,987.78
2022-10-21T05:48:35.048Z,987.76
2022-10-21T05:50:39.673Z,987.77
2022-10-21T05:51:39.336Z,987.75
2022-10-21T05:53:44.032Z,987.76
2022-10-21T05:54:44.052Z,987.77
2022-10-21T05:56:37.475Z,987.77
2022-10-21T05:57:37.490Z,987.77
2022-10-21T05:59:41.901Z,987.80
2022-10-21T06:00:41.905Z,987.83
2022-10-21T06:02:46.389Z,987.91
2022-10-21T06:03:46.104Z,987.87
2022-10-21T06:05:51.799Z,987.85
2022-10-21T06:06:51.679Z,987.84
2022-10-21T06:08:56.223Z,987.87
2022-10-21T06:09:55.862Z,987.80
2022-10-21T06:12:00.651Z,987.96
2022-10-21T06:13:00.633Z,987.95
2022-10-21T06:15:06.083Z,988.02
2022-10-21T06:18:10.467Z,988.17
2022-10-21T06:19:10.116Z,988.14
2022-10-21T06:21:14.900Z,988.14
2022-10-21T06:22:14.866Z,988.16
2022-10-21T06:24:19.437Z,988.17
2022-10-21T06:25:19.026Z,988.18
2022-10-21T06:27:23.835Z,988.14
2022-10-21T06:28:23.444Z,988.12
2022-10-21T06:30:29.254Z,988.12
2022-10-21T06:31:28.909Z,988.14
2022-10-21T06:33:33.670Z,988.06
2022-10-21T06:34:33.716Z,988.06
2022-10-21T06:36:26.983Z,988.10
2022-10-21T06:37:26.987Z,988.11
2022-10-21T06:39:31.460Z,988.10
2022-10-21T06:40:31.563Z,988.07
2022-10-21T06:42:35.881Z,988.08
2022-10-21T06:43:35.857Z,988.09
2022-10-21T06:45:40.323Z,988.11
2022-10-21T06:46:40.000Z,988.10
2022-10-21T06:48:44.821Z,988.11
2022-10-21T06:49:44.421Z,988.11
2022-10-21T06:51:50.160Z,988.13
2022-10-21T06:52:50.102Z,988.16
2022-10-21T06:54:54.578Z,988.19
2022-10-21T06:55:54.598Z,988.26
2022-10-21T06:57:59.081Z,988.25
2022-10-21T06:58:59.085Z,988.29
2022-10-21T07:01:03.509Z,988.36
2022-10-21T07:02:03.455Z,988.34
2022-10-21T07:04:09.004Z,988.35
2022-10-21T07:05:09.034Z,988.37
2022-10-21T07:07:02.333Z,988.40
2022-10-21T07:08:02.813Z,988.41
2022-10-21T07:10:06.744Z,988.44
2022-10-21T07:11:06.510Z,988.44
2022-10-21T07:13:11.226Z,988.49
2022-10-21T07:14:10.916Z,988.52
2022-10-21T07:16:15.681Z,988.56
2022-10-21T07:17:15.729Z,988.57
2022-10-21T07:19:21.053Z,988.65
2022-10-21T07:20:21.098Z,988.61
2022-10-21T07:22:25.467Z,988.62
2022-10-21T07:23:25.184Z,988.68
2022-10-21T07:25:29.944Z,988.72
2022-10-21T07:26:29.596Z,988.72
2022-10-21T07:28:34.386Z,988.70
2022-10-21T07:29:34.313Z,988.79
2022-10-21T07:31:39.878Z,988.79
2022-10-21T07:32:39.903Z,988.79
2022-10-21T07:34:45.260Z,988.84
2022-10-21T07:35:45.193Z,988.79
2022-10-21T07:37:49.654Z,988.78
2022-10-21T07:38:49.349Z,988.77
2022-10-21T07:40:54.100Z,988.72
2022-10-21T07:41:54.059Z,988.71
2022-10-21T07:43:58.527Z,988.74
2022-10-21T07:44:58.491Z,988.72
2022-10-21T07:46:51.683Z,988.81
2022-10-21T07:47:51.538Z,988.82
2022-10-21T07:48:51.521Z,988.82
2022-10-21T07:49:51.855Z,988.84
2022-10-21T07:50:51.872Z,988.84
2022-10-21T07:51:51.839Z,988.87
2022-10-21T07:53:02.195Z,988.88
2022-10-21T07:53:51.752Z,988.87
2022-10-21T07:54:51.846Z,988.85
2022-10-21T07:55:51.383Z,988.83
2022-10-21T07:56:51.371Z,988.82
2022-10-21T07:57:51.366Z,988.77
2022-10-21T07:58:51.336Z,988.78
2022-10-21T07:59:51.313Z,988.78
2022-10-21T08:00:51.399Z,988.81
2022-10-21T08:01:51.286Z,988.82
2022-10-21T08:02:51.271Z,988.85
2022-10-21T08:03:51.252Z,988.82
2022-10-21T08:04:51.242Z,988.78
2022-10-21T08:05:51.221Z,988.77
2022-10-21T08:06:51.207Z,988.78
2022-10-21T08:07:51.190Z,988.73
2022-10-21T08:08:51.247Z,988.73
2022-10-21T08:09:51.162Z,988.77
2022-10-21T08:10:51.163Z,988.71
2022-10-21T08:11:51.129Z,988.70
2022-10-21T08:12:51.120Z,988.73
2022-10-21T08:13:51.098Z,988.73
2022-10-21T08:14:51.084Z,988.75
2022-10-21T08:15:51.070Z,988.75
2022-10-21T08:16:51.052Z,988.77
2022-10-21T08:17:51.036Z,988.76
2022-10-21T08:18:51.026Z,988.74
2022-10-21T08:19:51.048Z,988.76
2022-10-21T08:20:50.993Z,988.72
2022-10-21T08:21:50.973Z,988.71
2022-10-21T08:22:50.960Z,988.70
2022-10-21T08:23:50.948Z,988.69
2022-10-21T08:24:50.936Z,988.71
2022-10-21T08:25:50.913Z,988.75
2022-10-21T08:26:50.898Z,988.72
2022-10-21T08:27:50.887Z,988.72
2022-10-21T08:28:50.920Z,988.76
2022-10-21T08:29:50.852Z,988.77
2022-10-21T08:30:50.836Z,988.73
2022-10-21T08:31:50.823Z,988.76
2022-10-21T08:32:50.809Z,988.76
2022-10-21T08:33:50.793Z,988.75
2022-10-21T08:34:50.774Z,988.79
2022-10-21T08:35:50.767Z,988.77
2022-10-21T08:36:50.741Z,988.78
2022-10-21T08:37:50.729Z,988.77
2022-10-21T08:38:50.712Z,988.78
2022-10-21T08:39:50.694Z,988.77
2022-10-21T08:40:53.526Z,988.78
2022-10-21T08:41:50.663Z,988.80
2022-10-21T08:42:50.649Z,988.79
2022-10-21T08:43:50.632Z,988.77
2022-10-21T08:44:50.619Z,988.79
2022-10-21T08:45:50.601Z,988.79
2022-10-21T08:46:50.593Z,988.75
2022-10-21T08:47:50.575Z,988.77
2022-10-21T08:48:50.559Z,988.78
2022-10-21T08:49:50.539Z,988.75
2022-10-21T08:50:50.524Z,988.75
2022-10-21T08:51:50.511Z,988.77
2022-10-21T08:52:50.493Z,988.73
2022-10-21T08:53:50.489Z,988.74
2022-10-21T08:54:50.463Z,988.70
2022-10-21T08:55:50.448Z,988.68
2022-10-21T08:56:50.434Z,988.76
2022-10-21T08:57:50.416Z,988.74
2022-10-21T08:58:50.402Z,988.72
2022-10-21T08:59:50.392Z,988.69
2022-10-21T09:00:50.371Z,988.71
2022-10-21T09:01:50.355Z,988.72
2022-10-21T09:02:50.386Z,988.75
2022-10-21T09:03:50.331Z,988.73
2022-10-21T09:04:50.309Z,988.67
2022-10-21T09:05:50.296Z,988.64
2022-10-21T09:06:50.289Z,988.67
2022-10-21T09:07:50.261Z,988.63
2022-10-21T09:08:52.565Z,988.66
2022-10-21T09:09:50.230Z,988.66
2022-10-21T09:10:50.220Z,988.61
2022-10-21T09:11:50.200Z,988.56
2022-10-21T09:12:50.187Z,988.59
2022-10-21T09:13:50.171Z,988.57
2022-10-21T09:14:50.164Z,988.57
2022-10-21T09:15:50.153Z,988.64
2022-10-21T09:16:50.123Z,988.64
2022-10-21T09:17:50.108Z,988.59
2022-10-21T09:18:50.097Z,988.58
2022-10-21T09:19:50.078Z,988.50
2022-10-21T09:20:55.039Z,988.48
2022-10-21T09:21:50.046Z,988.50
2022-10-21T09:22:50.034Z,988.58
2022-10-21T09:23:50.017Z,988.69
2022-10-21T09:24:50.004Z,988.75
2022-10-21T09:25:49.984Z,988.77
2022-10-21T09:26:49.976Z,988.80
2022-10-21T09:27:56.089Z,988.81
2022-10-21T09:28:49.943Z,988.85
2022-10-21T09:29:49.926Z,988.85
2022-10-21T09:30:49.910Z,988.86
2022-10-21T09:31:55.187Z,988.87
2022-10-21T09:32:49.885Z,988.90
2022-10-21T09:33:49.886Z,988.94
2022-10-21T09:34:49.848Z,988.89
2022-10-21T09:35:49.836Z,988.90
2022-10-21T09:36:49.825Z,988.92
2022-10-21T09:37:49.805Z,988.89
2022-10-21T09:38:49.789Z,988.88
2022-10-21T09:39:49.772Z,988.82
2022-10-21T09:40:49.758Z,988.84
2022-10-21T09:41:49.741Z,988.90
2022-10-21T09:42:50.194Z,988.85
2022-10-21T09:43:49.710Z,988.83
2022-10-21T09:44:49.698Z,988.83
2022-10-21T09:45:49.681Z,988.86
2022-10-21T09:46:49.668Z,988.86
2022-10-21T09:47:49.649Z,988.86
2022-10-21T09:50:16.689Z,988.83
2022-10-21T09:50:49.606Z,988.86
2022-10-21T09:51:49.591Z,988.87
2022-10-21T09:52:49.575Z,988.86
2022-10-21T09:53:53.983Z,988.81
2022-10-21T09:54:49.553Z,988.79
2022-10-21T09:55:49.532Z,988.77
2022-10-21T09:56:49.513Z,988.81
2022-10-21T09:57:49.498Z,988.79
2022-10-21T09:58:49.486Z,988.82
2022-10-21T09:59:49.474Z,988.77
2022-10-21T10:00:49.458Z,988.80
2022-10-21T10:01:49.500Z,988.76
2022-10-21T10:02:49.429Z,988.74
2022-10-21T10:03:49.407Z,988.73
2022-10-21T10:04:49.399Z,988.78
2022-10-21T10:05:49.376Z,988.73
2022-10-21T10:06:49.371Z,988.72
2022-10-21T10:07:49.366Z,988.76
2022-10-21T10:08:49.418Z,988.71
2022-10-21T10:09:49.318Z,988.77
2022-10-21T10:10:49.308Z,988.77
2022-10-21T10:11:49.300Z,988.78
2022-10-21T10:12:49.271Z,988.84
2022-10-21T10:13:49.255Z,988.77
2022-10-21T10:14:49.240Z,988.81
2022-10-21T10:15:49.224Z,988.79
2022-10-21T10:16:49.216Z,988.81
2022-10-21T10:17:49.192Z,988.82
2022-10-21T10:18:49.183Z,988.83
2022-10-21T10:19:49.165Z,988.80
2022-10-21T10:20:49.157Z,988.84
2022-10-21T10:21:49.133Z,988.83
2022-10-21T10:22:49.120Z,988.84
2022-10-21T10:23:49.103Z,988.85
2022-10-21T10:24:49.095Z,988.89
2022-10-21T10:25:49.077Z,988.95
2022-10-21T10:26:49.063Z,988.94
2022-10-21T10:27:49.043Z,988.99
2022-10-21T10:28:49.029Z,988.99
2022-10-21T10:29:49.012Z,989.05
2022-10-21T10:30:48.997Z,989.05
2022-10-21T10:31:50.714Z,989.07
2022-10-21T10:32:49.066Z,989.09
2022-10-21T10:33:48.959Z,989.14
2022-10-21T10:34:48.939Z,989.16
2022-10-21T10:35:48.922Z,989.19
2022-10-21T10:36:48.907Z,989.20
2022-10-21T10:37:48.897Z,989.20
2022-10-21T10:38:48.877Z,989.27
2022-10-21T10:39:48.875Z,989.31
2022-10-21T10:40:48.849Z,989.28
2022-10-21T10:41:48.828Z,989.20
2022-10-21T10:42:48.816Z,989.14
2022-10-21T10:43:48.803Z,989.16
2022-10-21T10:44:48.782Z,989.22
2022-10-21T10:45:48.770Z,989.24
2022-10-21T10:47:48.737Z,989.31
2022-10-21T10:48:48.818Z,989.27
2022-10-21T10:49:48.705Z,989.29
2022-10-21T10:50:48.690Z,989.29
2022-10-21T10:51:48.678Z,989.30
2022-10-21T10:52:48.665Z,989.27
2022-10-21T10:53:48.657Z,989.29
2022-10-21T10:54:48.633Z,989.24
2022-10-21T10:56:48.617Z,989.26
2022-10-21T10:57:59.139Z,989.35
2022-10-21T10:58:48.570Z,989.32
2022-10-21T10:59:48.554Z,989.29
2022-10-21T11:00:48.604Z,989.31
2022-10-21T11:01:48.520Z,989.29
2022-10-21T11:02:48.509Z,989.35
2022-10-21T11:03:48.493Z,989.34
2022-10-21T11:04:48.639Z,989.31
2022-10-21T11:05:48.466Z,989.32
2022-10-21T11:06:48.447Z,989.32
2022-10-21T11:07:48.433Z,989.31
2022-10-21T11:08:48.572Z,989.35
2022-10-21T11:09:48.402Z,989.35
2022-10-21T11:10:48.385Z,989.31
2022-10-21T11:11:48.374Z,989.33
2022-10-21T11:12:48.354Z,989.32
2022-10-21T11:13:48.431Z,989.36
2022-10-21T11:14:48.323Z,989.28
2022-10-21T11:15:48.307Z,989.33
2022-10-21T11:16:59.603Z,989.28
2022-10-21T11:17:48.276Z,989.34
2022-10-21T11:18:49.813Z,989.28
2022-10-21T11:19:48.246Z,989.29
2022-10-21T11:20:48.338Z,989.28
2022-10-21T11:21:48.216Z,989.23
2022-10-21T11:22:48.203Z,989.25
2022-10-21T11:23:48.186Z,989.20
2022-10-21T11:24:48.172Z,989.21
2022-10-21T11:25:48.160Z,989.16
2022-10-21T11:26:48.150Z,989.12
2022-10-21T11:27:48.126Z,989.11
2022-10-21T11:28:48.114Z,989.08
2022-10-21T11:29:48.096Z,989.03
2022-10-21T11:30:48.082Z,989.07
2022-10-21T11:32:10.090Z,988.98
2022-10-21T11:32:48.051Z,988.98
2022-10-21T11:33:48.034Z,988.95
2022-10-21T11:34:48.022Z,988.94
2022-10-21T11:35:48.010Z,988.95
2022-10-21T11:36:48.084Z,988.94
2022-10-21T11:37:47.976Z,988.91
2022-10-21T11:38:47.964Z,988.94
2022-10-21T11:39:47.948Z,988.91
2022-10-21T11:40:47.932Z,988.87
2022-10-21T11:41:47.916Z,988.86
2022-10-21T11:42:47.907Z,988.85
2022-10-21T11:43:47.892Z,988.82
2022-10-21T11:44:47.874Z,988.78
2022-10-21T11:45:47.864Z,988.76
2022-10-21T11:46:47.847Z,988.77
2022-10-21T11:47:47.834Z,988.83
2022-10-21T11:48:47.814Z,988.82
2022-10-21T11:49:47.797Z,988.85
2022-10-21T11:50:47.785Z,988.87
2022-10-21T11:51:47.768Z,988.99
2022-10-21T11:52:47.851Z,988.95
2022-10-21T11:53:47.739Z,989.04
2022-10-21T11:55:05.693Z,989.07
2022-10-21T11:55:47.708Z,989.12
2022-10-21T11:56:47.695Z,989.10
2022-10-21T11:57:47.681Z,989.00
2022-10-21T11:58:47.664Z,989.03
2022-10-21T11:59:51.632Z,988.98
2022-10-21T12:00:47.637Z,988.97
2022-10-21T12:01:47.631Z,988.97
2022-10-21T12:02:47.670Z,988.93
2022-10-21T12:03:47.592Z,988.99
2022-10-21T12:04:47.579Z,989.08
2022-10-21T12:05:47.566Z,989.10
2022-10-21T12:06:47.551Z,989.13
2022-10-21T12:07:47.536Z,989.12
2022-10-21T12:08:49.472Z,989.13
2022-10-21T12:09:47.508Z,989.14
2022-10-21T12:10:47.492Z,989.15
2022-10-21T12:11:47.480Z,989.23
2022-10-21T12:12:47.466Z,989.26
2022-10-21T12:13:47.451Z,989.21
2022-10-21T12:14:47.435Z,989.26
2022-10-21T12:15:47.427Z,989.31
2022-10-21T12:16:47.474Z,989.28
2022-10-21T12:17:47.393Z,989.22
2022-10-21T12:18:47.381Z,989.17
2022-10-21T12:19:47.367Z,989.21
2022-10-21T12:20:47.351Z,989.14
2022-10-21T12:21:47.390Z,989.12
2022-10-21T12:22:47.324Z,989.19
2022-10-21T12:23:47.313Z,989.22
2022-10-21T12:24:47.397Z,989.23
2022-10-21T12:25:47.287Z,989.29
2022-10-21T12:26:47.272Z,989.28
2022-10-21T12:27:47.258Z,989.26
2022-10-21T12:28:47.243Z,989.21
2022-10-21T12:29:47.231Z,989.30
2022-10-21T12:30:47.219Z,989.20
2022-10-21T12:31:47.235Z,989.23
2022-10-21T12:32:47.194Z,989.25
2022-10-21T12:33:47.185Z,989.19
2022-10-21T12:34:47.178Z,989.18
2022-10-21T12:35:47.168Z,989.20
2022-10-21T12:36:47.138Z,989.21
2022-10-21T12:37:47.178Z,989.20
2022-10-21T12:38:47.118Z,989.21
2022-10-21T12:39:47.102Z,989.21
2022-10-21T12:40:47.178Z,989.17
2022-10-21T12:41:47.075Z,989.21
2022-10-21T12:42:47.059Z,989.18
2022-10-21T12:43:47.052Z,989.13
2022-10-21T12:44:47.035Z,989.11
2022-10-21T12:45:47.027Z,989.10
2022-10-21T12:46:47.008Z,989.15
2022-10-21T12:47:46.996Z,989.19
2022-10-21T12:48:46.986Z,989.16
2022-10-21T12:49:46.970Z,989.14
2022-10-21T12:50:46.957Z,989.16
2022-10-21T12:51:46.948Z,989.19
2022-10-21T12:52:46.944Z,989.17
2022-10-21T12:53:46.951Z,989.18
2022-10-21T12:54:46.911Z,989.23
2022-10-21T12:55:46.903Z,989.20
2022-10-21T12:56:46.945Z,989.20
2022-10-21T12:57:46.871Z,989.17
2022-10-21T12:58:46.861Z,989.20
2022-10-21T12:59:46.846Z,989.20
2022-10-21T13:00:46.859Z,989.21
2022-10-21T13:01:46.821Z,989.17
2022-10-21T13:02:51.620Z,989.18
2022-10-21T13:03:46.805Z,989.18
2022-10-21T13:04:46.786Z,989.20
2022-10-21T13:05:46.771Z,989.26
2022-10-21T13:06:46.757Z,989.26
2022-10-21T13:07:46.746Z,989.20
2022-10-21T13:08:46.775Z,989.28
2022-10-21T13:09:46.721Z,989.28
2022-10-21T13:10:46.710Z,989.23
2022-10-21T13:11:46.700Z,989.29
2022-10-21T13:12:46.722Z,989.32
2022-10-21T13:13:46.675Z,989.31
2022-10-21T13:14:46.668Z,989.29
2022-10-21T13:15:46.655Z,989.31
2022-10-21T13:16:46.638Z,989.27